createdAt,value
2019-01-23T00:02:12.418Z,54.23
2019-01-23T00:04:52.806Z,55.65
2019-01-23T00:07:33.248Z,64.87
2019-01-23T00:10:12.966Z,54.18
2019-01-23T00:12:53.488Z,48.98
2019-01-23T00:15:33.079Z,51.80
2019-01-23T00:18:13.070Z,56.77
2019-01-23T00:20:53.307Z,49.48
2019-01-23T00:23:33.413Z,51.63
2019-01-23T00:26:13.516Z,56.58
2019-01-23T00:28:53.680Z,54.75
2019-01-23T00:31:33.498Z,58.58
2019-01-23T00:34:13.574Z,47.60
2019-01-23T00:36:53.736Z,55.65
2019-01-23T00:39:33.887Z,57.88
2019-01-23T00:42:13.773Z,52.00
2019-01-23T00:44:53.675Z,44.75
2019-01-23T00:47:33.729Z,53.33
2019-01-23T00:50:13.992Z,47.27
2019-01-23T00:52:54.020Z,50.70
2019-01-23T00:55:34.438Z,55.58
2019-01-23T00:58:14.455Z,46.75
2019-01-23T01:00:54.542Z,55.20
2019-01-23T01:03:34.868Z,44.80
2019-01-23T01:06:14.715Z,57.33
2019-01-23T01:08:54.812Z,49.83
2019-01-23T01:11:35.089Z,55.35
2019-01-23T01:14:14.938Z,54.03
2019-01-23T01:16:55.014Z,52.25
2019-01-23T01:19:35.420Z,51.18
2019-01-23T01:22:15.272Z,55.08
2019-01-23T01:24:56.079Z,47.17
2019-01-23T01:27:35.974Z,48.90
2019-01-23T01:30:15.997Z,42.53
2019-01-23T01:32:56.229Z,45.92
2019-01-23T01:35:36.213Z,46.28
2019-01-23T01:38:16.134Z,51.13
2019-01-23T01:40:56.506Z,50.73
2019-01-23T01:43:36.498Z,48.30
2019-01-23T01:46:16.482Z,53.75
2019-01-23T01:48:56.569Z,46.23
2019-01-23T01:51:36.477Z,46.37
2019-01-23T01:54:16.704Z,48.87
2019-01-23T01:56:56.891Z,45.30
2019-01-23T01:59:36.640Z,54.65
2019-01-23T02:02:16.652Z,50.58
2019-01-23T02:04:56.755Z,52.03
2019-01-23T02:07:36.696Z,44.08
2019-01-23T02:10:16.922Z,46.60
2019-01-23T02:12:56.958Z,51.37
2019-01-23T02:15:36.792Z,44.13
2019-01-23T02:18:16.866Z,50.20
2019-01-23T02:20:57.039Z,38.83
2019-01-23T02:23:37.180Z,40.05
2019-01-23T04:12:09.525Z,54.05
2019-01-23T04:14:49.358Z,52.15
2019-01-23T04:17:29.412Z,56.58
2019-01-23T04:20:09.517Z,54.60
2019-01-23T04:22:49.874Z,58.00
2019-01-23T04:25:30.113Z,60.80
2019-01-23T04:28:09.971Z,60.73
2019-01-23T04:30:50.141Z,56.50
2019-01-23T04:33:30.050Z,58.63
2019-01-23T04:36:10.122Z,56.35
2019-01-23T04:38:50.052Z,63.78
2019-01-23T04:41:30.263Z,65.28
2019-01-23T04:44:10.488Z,58.23
2019-01-23T04:46:50.704Z,68.90
2019-01-23T04:49:30.487Z,56.92
2019-01-23T04:55:47.647Z,59.85
2019-01-23T04:58:27.532Z,53.38
2019-01-23T05:01:07.605Z,61.20
2019-01-23T05:03:47.507Z,54.25
2019-01-23T05:06:27.436Z,55.50
2019-01-23T05:09:07.574Z,52.73
2019-01-23T05:11:47.574Z,58.42
2019-01-23T05:14:27.922Z,67.20
2019-01-23T05:17:07.995Z,59.10
2019-01-23T05:19:48.011Z,58.48
2019-01-23T05:22:28.077Z,57.13
2019-01-23T05:25:07.796Z,55.38
2019-01-23T05:27:47.980Z,54.13
2019-01-23T05:30:28.028Z,58.20
2019-01-23T05:33:08.349Z,50.60
2019-01-23T05:35:48.265Z,54.27
2019-01-23T05:38:28.558Z,58.75
2019-01-23T05:41:08.661Z,57.62
2019-01-23T05:43:48.766Z,56.95
2019-01-23T05:46:30.689Z,57.70
2019-01-23T05:49:10.809Z,57.40
2019-01-23T05:51:50.515Z,63.17
2019-01-23T05:54:30.846Z,60.25
2019-01-23T05:57:10.656Z,64.25
2019-01-23T05:59:50.830Z,60.48
2019-01-23T06:02:30.689Z,55.65
2019-01-23T06:05:10.766Z,60.40
2019-01-23T06:07:50.985Z,62.38
2019-01-23T06:10:31.234Z,65.47
2019-01-23T06:13:11.244Z,60.40
2019-01-23T06:15:51.028Z,51.53
2019-01-23T06:18:30.926Z,57.70
2019-01-23T06:21:11.297Z,61.65
2019-01-23T06:23:54.212Z,56.68
2019-01-23T06:26:34.011Z,73.70
2019-01-23T06:29:14.270Z,68.20
2019-01-23T06:31:54.295Z,64.50
2019-01-23T06:34:35.319Z,63.08
2019-01-23T06:37:15.688Z,70.78
2019-01-23T06:39:55.812Z,64.42
2019-01-23T06:42:36.188Z,69.37
2019-01-23T06:45:16.070Z,67.42
2019-01-23T06:47:55.802Z,60.95
2019-01-23T06:50:35.963Z,59.18
2019-01-23T06:53:16.020Z,60.63
2019-01-23T06:55:56.131Z,62.53
2019-01-23T06:58:36.522Z,66.40
2019-01-23T07:01:16.447Z,59.53
2019-01-23T07:03:56.149Z,62.05
2019-01-23T07:06:36.316Z,62.48
2019-01-23T07:09:16.432Z,69.82
2019-01-23T07:11:56.721Z,69.53
2019-01-23T07:14:37.007Z,70.47
2019-01-23T07:17:16.884Z,67.42
2019-01-23T07:19:56.770Z,67.05
2019-01-23T07:22:36.972Z,57.53
2019-01-23T07:25:17.642Z,69.55
2019-01-23T07:27:57.217Z,54.30
2019-01-23T07:30:37.817Z,54.18
2019-01-23T07:33:17.422Z,61.60
2019-01-23T07:35:57.244Z,69.20
2019-01-23T07:38:37.302Z,63.65
2019-01-23T07:41:17.464Z,55.52
2019-01-23T07:43:57.599Z,61.73
2019-01-23T07:46:38.236Z,61.30
2019-01-23T07:49:17.982Z,71.53
2019-01-23T07:51:57.992Z,69.53
2019-01-23T07:54:38.292Z,58.78
2019-01-23T07:57:18.335Z,70.70
2019-01-23T07:59:58.187Z,69.82
2019-01-23T08:02:38.243Z,71.97
2019-01-23T08:05:19.538Z,63.50
2019-01-23T08:07:59.778Z,64.17
2019-01-23T08:10:40.159Z,70.83
2019-01-23T08:13:20.164Z,54.93
2019-01-23T08:16:00.104Z,70.10
2019-01-23T08:18:40.304Z,69.05
2019-01-23T08:21:20.538Z,69.85
2019-01-23T08:24:00.543Z,73.70
2019-01-23T08:26:41.546Z,75.22
2019-01-23T08:29:21.816Z,63.63
2019-01-23T08:32:02.010Z,69.97
2019-01-23T08:34:42.355Z,68.97
2019-01-23T08:37:22.330Z,71.55
2019-01-23T08:40:02.627Z,66.72
2019-01-23T08:42:44.176Z,77.30
2019-01-23T08:45:24.023Z,68.30
2019-01-23T08:48:03.936Z,69.50
2019-01-23T08:50:44.324Z,67.53
2019-01-23T08:53:24.864Z,74.80
2019-01-23T08:56:04.909Z,69.30
2019-01-23T08:58:45.152Z,69.10
2019-01-23T09:01:25.356Z,94.90
2019-01-23T09:04:05.386Z,73.55
2019-01-23T09:06:45.649Z,70.57
2019-01-23T09:09:25.693Z,72.72
2019-01-23T09:12:05.604Z,70.83
2019-01-23T09:14:47.067Z,71.37
2019-01-23T09:17:26.778Z,93.45
2019-01-23T09:20:07.076Z,80.92
2019-01-23T09:22:47.128Z,75.50
2019-01-23T09:25:27.241Z,67.67
2019-01-23T09:28:07.645Z,65.42
2019-01-23T09:30:52.604Z,67.72
2019-01-23T09:33:29.975Z,69.55
2019-01-23T09:36:11.206Z,71.90
2019-01-23T09:38:51.995Z,65.75
2019-01-23T09:41:32.242Z,67.78
2019-01-23T09:44:12.108Z,69.55
2019-01-23T09:46:52.423Z,71.17
2019-01-23T09:49:33.039Z,72.67
2019-01-23T09:52:12.856Z,71.80
2019-01-23T09:54:53.423Z,62.05
2019-01-23T09:57:33.198Z,77.95
2019-01-23T10:00:13.540Z,66.47
2019-01-23T10:02:53.644Z,70.35
2019-01-23T10:05:33.620Z,71.15
2019-01-23T10:08:13.411Z,72.17
2019-01-23T10:10:53.440Z,76.65
2019-01-23T10:13:33.474Z,62.93
2019-01-23T10:16:13.804Z,70.75
2019-01-23T10:18:56.192Z,77.45
2019-01-23T10:21:35.887Z,81.85
2019-01-23T10:24:15.580Z,80.92
2019-01-23T10:26:55.862Z,98.12
2019-01-23T10:29:35.766Z,82.88
2019-01-23T10:32:16.148Z,87.40
2019-01-23T10:34:56.128Z,84.32
2019-01-23T10:37:35.935Z,96.00
2019-01-23T10:40:16.129Z,95.12
2019-01-23T10:42:56.266Z,102.10
2019-01-23T10:45:36.454Z,94.30
2019-01-23T10:48:16.545Z,103.32
2019-01-23T10:50:56.460Z,92.00
2019-01-23T10:53:36.652Z,104.10
2019-01-23T10:56:16.672Z,99.95
2019-01-23T10:58:56.804Z,92.72
2019-01-23T11:01:36.737Z,82.97
2019-01-23T11:04:16.627Z,93.42
2019-01-23T11:06:57.135Z,90.97
2019-01-23T11:09:36.707Z,96.05
2019-01-23T11:12:16.909Z,91.85
2019-01-23T11:14:56.847Z,80.12
2019-01-23T11:17:37.175Z,83.12
2019-01-23T11:20:17.309Z,70.47
2019-01-23T11:22:57.287Z,80.85
2019-01-23T11:25:37.708Z,68.92
2019-01-23T11:28:17.354Z,77.10
2019-01-23T11:30:57.407Z,69.75
2019-01-23T11:33:37.656Z,79.80
2019-01-23T11:36:17.727Z,84.07
2019-01-23T11:38:57.740Z,83.10
2019-01-23T11:41:38.166Z,76.55
2019-01-23T11:44:18.252Z,72.05
2019-01-23T11:46:59.427Z,78.55
2019-01-23T11:49:39.680Z,84.40
2019-01-23T11:52:19.445Z,81.42
2019-01-23T11:54:59.524Z,79.92
2019-01-23T11:57:40.007Z,81.63
2019-01-23T12:00:20.384Z,81.60
2019-01-23T12:03:00.447Z,84.45
2019-01-23T12:05:40.304Z,72.80
2019-01-23T12:08:20.524Z,88.70
2019-01-23T12:11:00.049Z,88.72
2019-01-23T12:13:40.443Z,86.05
2019-01-23T12:16:20.309Z,82.53
2019-01-23T12:19:00.377Z,92.47
2019-01-23T12:21:43.404Z,84.92
2019-01-23T12:24:24.808Z,87.05
2019-01-23T12:27:04.829Z,84.70
2019-01-23T12:29:44.906Z,86.72
2019-01-23T12:32:24.995Z,91.37
2019-01-23T12:35:05.014Z,94.65
2019-01-23T12:37:45.093Z,90.95
2019-01-23T12:40:25.170Z,95.45
2019-01-23T12:43:05.499Z,95.28
2019-01-23T12:45:45.234Z,90.42
2019-01-23T12:48:25.602Z,82.88
2019-01-23T12:51:05.515Z,81.65
2019-01-23T12:53:45.437Z,95.80
2019-01-23T12:56:25.592Z,91.32
2019-01-23T12:59:05.604Z,91.72
2019-01-23T13:01:47.108Z,86.45
2019-01-23T13:04:27.108Z,88.50
2019-01-23T13:07:06.945Z,87.42
2019-01-23T13:09:47.154Z,76.90
2019-01-23T13:12:27.526Z,82.02
2019-01-23T13:15:07.682Z,89.13
2019-01-23T13:17:47.467Z,80.67
2019-01-23T13:20:27.370Z,79.80
2019-01-23T13:23:07.613Z,90.42
2019-01-23T13:25:47.508Z,87.85
2019-01-23T13:28:27.696Z,82.75
2019-01-23T13:31:07.554Z,85.65
2019-01-23T13:33:47.692Z,74.62
2019-01-23T13:36:27.729Z,81.20
2019-01-23T13:39:07.980Z,95.50
2019-01-23T13:41:48.307Z,88.20
2019-01-23T13:44:29.106Z,86.10
2019-01-23T13:47:08.708Z,89.20
2019-01-23T13:49:48.854Z,87.47
2019-01-23T13:52:28.823Z,103.62
2019-01-23T13:55:08.991Z,95.95
2019-01-23T13:57:49.462Z,80.95
2019-01-23T14:00:29.192Z,86.02
2019-01-23T14:03:09.124Z,82.85
2019-01-23T14:05:49.291Z,87.15
2019-01-23T14:08:29.365Z,82.30
2019-01-23T14:11:09.316Z,89.45
2019-01-23T14:13:49.656Z,84.05
2019-01-23T14:16:29.521Z,84.72
2019-01-23T14:19:09.860Z,89.17
2019-01-23T14:21:49.658Z,90.85
2019-01-23T14:24:29.950Z,86.55
2019-01-23T14:27:09.680Z,78.07
2019-01-23T14:29:49.909Z,77.95
2019-01-23T14:32:29.970Z,83.72
2019-01-23T14:35:09.979Z,78.92
2019-01-23T14:37:50.178Z,79.25
2019-01-23T14:40:30.018Z,83.33
2019-01-23T14:43:09.919Z,90.42
2019-01-23T14:45:51.008Z,86.85
2019-01-23T14:48:31.469Z,81.02
2019-01-23T14:51:11.256Z,76.97
2019-01-23T14:53:51.512Z,80.47
2019-01-23T14:56:31.672Z,89.03
2019-01-23T14:59:11.728Z,83.90
2019-01-23T15:01:51.610Z,79.40
2019-01-23T15:04:31.446Z,82.80
2019-01-23T15:07:11.564Z,87.17
2019-01-23T15:09:51.817Z,83.15
2019-01-23T15:12:31.354Z,77.40
2019-01-23T15:15:11.689Z,82.00
2019-01-23T15:17:51.479Z,77.05
2019-01-23T15:20:31.622Z,79.82
2019-01-23T15:23:11.882Z,80.35
2019-01-23T15:25:51.545Z,83.67
2019-01-23T15:28:31.802Z,88.05
2019-01-23T15:31:11.838Z,82.55
2019-01-23T15:33:51.752Z,81.20
2019-01-23T15:36:31.959Z,74.85
2019-01-23T15:39:11.962Z,77.10
2019-01-23T15:41:51.772Z,77.42
2019-01-23T15:44:32.064Z,84.05
2019-01-23T15:47:12.044Z,77.00
2019-01-23T15:49:52.038Z,84.15
2019-01-23T15:52:32.346Z,73.80
2019-01-23T15:55:12.180Z,82.12
2019-01-23T15:57:52.471Z,81.08
2019-01-23T16:00:32.624Z,70.75
2019-01-23T16:03:12.572Z,81.53
2019-01-23T16:05:52.548Z,79.97
2019-01-23T16:08:33.096Z,70.72
2019-01-23T16:11:13.170Z,76.22
2019-01-23T16:13:53.217Z,80.42
2019-01-23T16:16:33.777Z,78.55
2019-01-23T16:19:13.663Z,84.75
2019-01-23T16:21:53.227Z,70.92
2019-01-23T16:24:33.340Z,82.15
2019-01-23T16:27:13.241Z,78.52
2019-01-23T16:29:54.336Z,76.40
2019-01-23T16:32:34.624Z,74.75
2019-01-23T16:35:14.928Z,76.12
2019-01-23T16:37:54.671Z,79.92
2019-01-23T16:40:35.098Z,85.45
2019-01-23T16:43:15.640Z,76.07
2019-01-23T16:45:55.611Z,81.15
2019-01-23T16:48:36.044Z,74.87
2019-01-23T16:51:16.263Z,75.90
2019-01-23T16:53:56.144Z,72.70
2019-01-23T16:56:36.092Z,77.03
2019-01-23T16:59:16.012Z,74.47
2019-01-23T17:01:56.371Z,88.75
2019-01-23T17:04:37.590Z,78.67
2019-01-23T17:07:17.972Z,83.37
2019-01-23T17:09:57.782Z,72.10
2019-01-23T17:12:37.726Z,72.92
2019-01-23T17:15:17.983Z,76.37
2019-01-23T17:17:58.928Z,75.28
2019-01-23T17:20:39.195Z,77.35
2019-01-23T17:23:19.197Z,74.22
2019-01-23T17:25:58.964Z,87.80
2019-01-23T17:28:38.957Z,70.17
2019-01-23T17:31:19.229Z,82.30
2019-01-23T17:33:59.458Z,74.60
2019-01-23T17:36:39.439Z,82.55
2019-01-23T17:39:19.377Z,84.40
2019-01-23T17:41:59.414Z,84.32
2019-01-23T17:44:39.471Z,83.30
2019-01-23T17:47:20.005Z,70.90
2019-01-23T17:50:00.548Z,81.82
2019-01-23T17:52:40.751Z,74.97
2019-01-23T17:55:20.435Z,87.35
2019-01-23T17:58:00.541Z,84.62
2019-01-23T18:00:46.219Z,75.97
2019-01-23T18:03:26.668Z,84.45
2019-01-23T18:06:07.034Z,82.08
2019-01-23T18:08:46.877Z,83.30
2019-01-23T18:11:26.572Z,82.02
2019-01-23T18:14:07.074Z,81.10
2019-01-23T18:16:46.803Z,72.45
2019-01-23T18:19:26.932Z,69.00
2019-01-23T18:22:07.318Z,75.75
2019-01-23T18:24:47.459Z,78.65
2019-01-23T18:27:27.381Z,81.22
2019-01-23T18:30:07.586Z,83.55
2019-01-23T18:32:47.987Z,78.30
2019-01-23T18:35:27.961Z,79.70
2019-01-23T18:38:08.008Z,89.97
2019-01-23T18:40:48.059Z,90.47
2019-01-23T18:43:27.930Z,94.92
2019-01-23T18:46:07.899Z,88.15
2019-01-23T18:48:47.909Z,85.10
2019-01-23T18:51:29.072Z,88.47
2019-01-23T18:54:09.154Z,85.32
2019-01-23T18:56:49.312Z,89.80
2019-01-23T18:59:30.567Z,95.05
2019-01-23T19:02:10.903Z,83.27
2019-01-23T19:04:51.198Z,97.00
2019-01-23T19:07:31.281Z,93.90
2019-01-23T19:10:11.309Z,84.28
2019-01-23T19:12:51.792Z,82.40
2019-01-23T19:15:31.732Z,89.72
2019-01-23T19:18:09.851Z,95.47
2019-01-23T19:20:49.766Z,80.20
2019-01-23T19:23:29.520Z,86.35
2019-01-23T19:26:09.771Z,90.53
2019-01-23T19:28:49.757Z,92.75
2019-01-23T19:31:29.703Z,95.97
2019-01-23T19:34:09.561Z,91.63
2019-01-23T19:36:49.799Z,94.70
2019-01-23T19:39:29.868Z,93.05
2019-01-23T19:42:09.733Z,94.42
2019-01-23T19:44:50.332Z,95.77
2019-01-23T19:47:31.233Z,95.92
2019-01-23T19:50:11.337Z,99.85
2019-01-23T19:52:51.019Z,96.53
2019-01-23T19:55:31.188Z,91.42
2019-01-23T19:58:11.340Z,90.85
2019-01-23T20:00:51.696Z,100.10
2019-01-23T20:03:32.344Z,100.27
2019-01-23T20:06:12.675Z,98.47
2019-01-23T20:08:52.862Z,81.95
2019-01-23T20:11:32.890Z,82.15
2019-01-23T20:14:13.008Z,99.92
2019-01-23T20:16:52.941Z,88.33
2019-01-23T20:19:32.906Z,90.05
2019-01-23T20:22:12.896Z,95.77
2019-01-23T20:24:53.240Z,93.58
2019-01-23T20:27:33.458Z,85.60
2019-01-23T20:30:13.323Z,90.50
2019-01-23T20:32:53.472Z,96.80
2019-01-23T20:35:33.640Z,90.40
2019-01-23T20:38:13.685Z,73.45
2019-01-23T20:40:54.171Z,87.85
2019-01-23T20:43:34.661Z,82.85
2019-01-23T20:46:15.008Z,87.20
2019-01-23T20:48:54.872Z,95.90
2019-01-23T20:51:35.148Z,86.55
2019-01-23T20:54:18.223Z,84.85
2019-01-23T20:57:00.676Z,85.28
2019-01-23T20:59:41.015Z,78.20
2019-01-23T21:02:21.005Z,89.87
2019-01-23T21:05:01.110Z,90.62
2019-01-23T21:07:41.434Z,79.47
2019-01-23T21:10:21.840Z,77.00
2019-01-23T21:13:02.457Z,85.25
2019-01-23T21:15:42.783Z,92.02
2019-01-23T21:18:23.441Z,80.50
2019-01-23T21:21:03.096Z,92.47
2019-01-23T21:23:42.992Z,76.50
2019-01-23T21:26:22.788Z,84.13
2019-01-23T21:29:03.311Z,92.33
2019-01-23T21:31:43.048Z,80.20
2019-01-23T21:34:23.355Z,95.20
2019-01-23T21:37:03.461Z,87.92
2019-01-23T21:39:43.422Z,80.83
2019-01-23T21:42:23.590Z,88.03
2019-01-23T21:45:03.323Z,88.67
2019-01-23T21:47:43.419Z,87.88
2019-01-23T21:50:23.584Z,91.75
2019-01-23T21:53:03.452Z,83.22
2019-01-23T21:55:43.743Z,72.45
2019-01-23T21:58:23.797Z,97.50
2019-01-23T22:01:04.404Z,85.80
2019-01-23T22:03:49.198Z,79.10
2019-01-23T22:06:26.505Z,88.82
2019-01-23T22:09:06.614Z,95.62
2019-01-23T22:11:48.779Z,82.35
2019-01-23T22:14:29.043Z,88.45
2019-01-23T22:17:09.070Z,94.28
2019-01-23T22:19:49.200Z,91.00
2019-01-23T22:22:29.143Z,85.50
2019-01-23T22:25:09.317Z,74.85
2019-01-23T22:27:49.312Z,81.82
2019-01-23T22:30:29.575Z,88.60
2019-01-23T22:33:10.362Z,101.75
2019-01-23T22:35:50.394Z,96.02
2019-01-23T22:38:30.428Z,97.22
2019-01-23T22:41:10.428Z,99.72
2019-01-23T22:43:50.811Z,98.42
2019-01-23T22:46:30.789Z,105.22
2019-01-23T22:49:10.882Z,99.35
2019-01-23T22:51:51.157Z,106.32
2019-01-23T22:54:30.984Z,95.95
2019-01-23T22:57:10.894Z,100.53
2019-01-23T22:59:51.220Z,115.40
2019-01-23T23:02:31.340Z,100.07
2019-01-23T23:05:11.352Z,97.45
2019-01-23T23:07:51.814Z,105.17
2019-01-23T23:10:32.192Z,100.35
2019-01-23T23:13:12.387Z,104.83
2019-01-23T23:15:52.338Z,89.05
2019-01-23T23:18:32.436Z,104.50
2019-01-23T23:21:12.268Z,109.60
2019-01-23T23:23:52.327Z,104.05
2019-01-23T23:26:32.690Z,109.12
2019-01-23T23:29:12.682Z,105.65
2019-01-23T23:31:53.301Z,99.45
2019-01-23T23:34:33.858Z,109.25
2019-01-23T23:37:13.957Z,104.05
2019-01-23T23:39:55.096Z,104.20
2019-01-23T23:42:35.303Z,118.37
2019-01-23T23:45:15.374Z,108.50
2019-01-23T23:47:55.460Z,104.70
2019-01-23T23:50:35.553Z,111.75
2019-01-23T23:53:15.781Z,103.62
2019-01-23T23:55:55.847Z,103.12
2019-01-23T23:58:36.034Z,103.83
